Accueil
METAR-TAF:

METAR-TAF

Aéroports :

Saint George, Alaska, États-Unis

latitude: 56-34-43N, longitude: 169-39-41W, altitude: 38 m

Observation

Le bulletin a été fait il y a 21 minutes, à 21:14 UTC
Vent 17 kt de nord/nord-ouest avec des rafales jusqu'à 22 kt
Température -3°C
Humidité 74%
Pression 996 hPa
Visibilité: 4.0 km
Nuages épars à une hauteur de 1700 ft
Ciel couvert à une hauteur de 2800 ft
neige faible

METAR: PAPB 152114Z AUTO 33017G22KT 2 1/2SM -SN SCT017 OVC028 M03/M07 A2942 RMK AO2 P0000 T10331067 TSNO

Heure: 12:35 (21:35 UTC)


TAF: absent

Observations et prévisions météorologiques de plus de 4000 aéroports (messages METAR et TAF).

Les stations disponibles sont représentées par des disques jaunes et rouges sur la carte.

Passer la souris dessus pour voir le nom de la station.

Cliquer dessus pour voir les observations et prévisions météorologiques.

Pour changer de carte: cliquez sur les boutons verts avec une croix noire pour zoomer, sur le bouton vert avec un tiret pour effectuer un zoom arrière, ou sur les flèches vertes pour les cartes adjacentes.


METAR-TAF: